createdAt,value
2022-08-14T11:01:47.491Z,13.00
2022-08-14T11:03:35.957Z,14.20
2022-08-14T11:05:14.742Z,16.20
2022-08-14T11:06:53.626Z,12.80
2022-08-14T11:08:34.384Z,13.60
2022-08-14T11:10:14.079Z,15.20
2022-08-14T11:11:46.134Z,14.60
2022-08-14T11:13:23.825Z,15.80
2022-08-14T11:15:02.317Z,15.80
2022-08-14T11:16:36.017Z,13.20
2022-08-14T11:18:20.467Z,14.80
2022-08-14T11:20:06.633Z,14.20
2022-08-14T11:21:48.189Z,16.00
2022-08-14T11:23:21.329Z,12.80
2022-08-14T11:24:56.034Z,14.20
2022-08-14T11:26:28.095Z,14.20
2022-08-14T11:28:01.999Z,12.00
2022-08-14T11:29:35.892Z,10.60
2022-08-14T11:31:09.471Z,12.80
2022-08-14T11:32:42.775Z,9.40
2022-08-14T11:34:32.199Z,13.00
2022-08-14T11:36:17.152Z,11.00
2022-08-14T11:38:00.020Z,10.00
2022-08-14T11:39:34.458Z,13.60
2022-08-14T11:41:08.986Z,13.00
2022-08-14T11:42:56.357Z,13.00
2022-08-14T11:44:45.089Z,11.00
2022-08-14T11:46:29.665Z,14.40
2022-08-14T11:48:13.662Z,14.00
2022-08-14T11:49:55.631Z,12.60
2022-08-14T11:51:30.426Z,10.80
2022-08-14T11:53:02.687Z,11.20
2022-08-14T11:54:36.282Z,11.20
2022-08-14T11:56:08.277Z,9.00
2022-08-14T11:57:59.496Z,11.60
2022-08-14T11:59:33.852Z,10.40
2022-08-14T12:01:09.768Z,11.80
2022-08-14T12:03:03.410Z,11.40
2022-08-14T12:04:37.668Z,9.00
2022-08-14T12:06:29.185Z,10.00
2022-08-14T12:08:13.597Z,13.20
2022-08-14T12:09:47.172Z,11.00
2022-08-14T12:11:24.646Z,10.40
2022-08-14T12:12:57.212Z,3.60
2022-08-14T12:14:34.812Z,9.60
2022-08-14T12:16:20.711Z,6.60
2022-08-14T12:17:55.887Z,8.20
2022-08-14T12:19:28.000Z,10.20
2022-08-14T12:21:15.735Z,10.40
2022-08-14T12:22:52.509Z,9.40
2022-08-14T12:24:35.830Z,7.80
2022-08-14T12:26:39.001Z,12.00
2022-08-14T12:28:05.482Z,9.80
2022-08-14T12:29:37.494Z,4.60
2022-08-14T12:31:13.439Z,11.20
2022-08-14T12:32:49.362Z,9.00
2022-08-14T12:34:24.248Z,9.00
2022-08-14T12:35:58.715Z,7.60
2022-08-14T12:37:32.027Z,9.40
2022-08-14T12:39:05.898Z,9.00
2022-08-14T12:40:52.624Z,10.20
2022-08-14T12:42:36.444Z,12.20
2022-08-14T12:44:16.009Z,8.80
2022-08-14T12:45:55.038Z,9.00
2022-08-14T12:47:31.279Z,10.20
2022-08-14T12:49:16.088Z,10.00
2022-08-14T12:50:49.788Z,9.40
2022-08-14T12:52:30.763Z,8.00
2022-08-14T12:54:27.370Z,10.20
2022-08-14T12:56:22.781Z,9.80
2022-08-14T12:57:53.666Z,8.40
2022-08-14T12:59:30.350Z,7.80
2022-08-14T13:01:16.306Z,10.60
2022-08-14T13:02:55.336Z,9.00
2022-08-14T13:04:29.930Z,8.60
2022-08-14T13:06:02.488Z,10.40
2022-08-14T13:07:34.283Z,12.80
2022-08-14T13:09:07.824Z,8.40
2022-08-14T13:10:51.317Z,14.20
2022-08-14T13:12:31.725Z,8.00
2022-08-14T13:14:08.758Z,10.60
2022-08-14T13:15:56.240Z,10.80
2022-08-14T13:17:37.940Z,9.80
2022-08-14T13:19:16.013Z,10.80
2022-08-14T13:20:52.168Z,11.00
2022-08-14T13:22:33.671Z,9.80
2022-08-14T13:24:13.195Z,9.60
2022-08-14T13:25:56.063Z,12.80
2022-08-14T13:27:28.164Z,11.00
2022-08-14T13:29:04.022Z,15.00
2022-08-14T13:30:36.420Z,18.40
2022-08-14T13:32:09.510Z,12.80
2022-08-14T13:33:42.817Z,12.60
2022-08-14T13:35:17.542Z,15.80
2022-08-14T13:36:51.862Z,11.60
2022-08-14T13:38:31.470Z,20.40
2022-08-14T13:40:04.333Z,25.40
2022-08-14T13:41:38.021Z,25.00
2022-08-14T13:43:09.924Z,26.80
2022-08-14T13:44:42.877Z,25.00
2022-08-14T13:46:15.122Z,26.80
2022-08-14T13:47:48.637Z,36.40
2022-08-14T13:49:23.984Z,32.60
2022-08-14T13:50:56.296Z,32.60
2022-08-14T13:52:51.865Z,33.60
2022-08-14T13:54:22.674Z,30.40
2022-08-14T13:55:54.374Z,22.00
2022-08-14T13:57:30.502Z,30.80
2022-08-14T13:59:02.473Z,29.80
2022-08-14T14:00:53.639Z,32.80
2022-08-14T14:02:33.790Z,34.00
2022-08-14T14:04:06.974Z,38.80
2022-08-14T14:05:53.095Z,38.40
2022-08-14T14:07:25.841Z,33.80
2022-08-14T14:09:04.114Z,30.20
2022-08-14T14:10:36.467Z,34.20
2022-08-14T14:12:37.264Z,31.60
2022-08-14T14:14:04.966Z,39.60
2022-08-14T14:15:57.840Z,31.80
2022-08-14T14:17:29.186Z,31.20
2022-08-14T14:19:09.694Z,31.40
2022-08-14T14:20:44.335Z,30.00
2022-08-14T14:23:00.787Z,37.80
2022-08-14T14:24:08.329Z,35.00
2022-08-14T14:25:51.079Z,37.00
2022-08-14T14:27:40.995Z,38.40
2022-08-14T14:29:14.420Z,28.60
2022-08-14T14:30:53.079Z,31.80
2022-08-14T14:32:32.076Z,37.60
2022-08-14T14:34:07.781Z,37.60
2022-08-14T14:35:51.737Z,41.40
2022-08-14T14:37:24.139Z,46.00
2022-08-14T14:39:01.221Z,40.20
2022-08-14T14:40:52.261Z,52.60
2022-08-14T14:42:32.192Z,55.20
2022-08-14T14:44:06.657Z,48.60
2022-08-14T14:45:44.045Z,54.80
2022-08-14T14:47:17.651Z,60.60
2022-08-14T14:48:54.857Z,56.00
2022-08-14T14:50:26.773Z,56.80
2022-08-14T14:52:01.062Z,54.80
2022-08-14T14:53:39.117Z,60.20
2022-08-14T14:55:16.914Z,54.00
2022-08-14T14:56:52.377Z,56.80
2022-08-14T14:58:25.762Z,52.80
2022-08-14T14:59:58.716Z,50.80
2022-08-14T15:01:32.078Z,57.80
2022-08-14T15:03:04.475Z,54.00
2022-08-14T15:04:38.031Z,48.00
2022-08-14T15:06:10.073Z,50.20
2022-08-14T15:07:45.531Z,43.00
2022-08-14T15:09:18.250Z,48.00
2022-08-14T15:10:50.214Z,49.40
2022-08-14T15:12:55.318Z,44.60
2022-08-14T15:14:54.836Z,49.00
2022-08-14T15:16:09.241Z,46.20
2022-08-14T15:17:43.062Z,48.80
2022-08-14T15:19:14.941Z,48.40
2022-08-14T15:20:46.795Z,46.60
2022-08-14T15:22:18.622Z,47.40
2022-08-14T15:23:52.116Z,40.40
2022-08-14T15:25:24.067Z,46.20
2022-08-14T15:26:58.851Z,43.80
2022-08-14T15:28:38.813Z,36.60
2022-08-14T15:30:13.862Z,41.40
2022-08-14T15:31:56.960Z,42.60
2022-08-14T15:34:00.912Z,37.40
2022-08-14T15:35:46.031Z,45.40
2022-08-14T15:37:17.996Z,45.80
2022-08-14T15:38:51.935Z,35.40
2022-08-14T15:40:23.965Z,35.40
2022-08-14T15:41:57.126Z,24.80
2022-08-14T15:43:34.676Z,33.60
2022-08-14T15:45:12.753Z,34.20
2022-08-14T15:46:46.798Z,36.40
2022-08-14T15:48:22.742Z,29.40
2022-08-14T15:49:56.326Z,31.80
2022-08-14T15:51:32.011Z,31.60
2022-08-14T15:53:03.714Z,36.40
2022-08-14T15:54:36.008Z,27.60
2022-08-14T15:56:09.743Z,31.40
2022-08-14T15:58:01.235Z,31.20
2022-08-14T15:59:56.039Z,29.60
2022-08-14T16:01:52.972Z,30.80
2022-08-14T16:03:27.242Z,28.40
2022-08-14T16:05:08.369Z,32.00
2022-08-14T16:06:42.099Z,31.80
2022-08-14T16:08:29.733Z,28.40
2022-08-14T16:10:28.386Z,29.20
2022-08-14T16:11:54.258Z,33.80
2022-08-14T16:13:42.209Z,28.60
2022-08-14T16:15:15.946Z,27.60
2022-08-14T16:16:56.786Z,35.20
2022-08-14T16:18:37.404Z,17.40
2022-08-14T16:20:12.896Z,29.00
2022-08-14T16:23:10.618Z,29.80
2022-08-14T16:23:58.400Z,26.20
2022-08-14T16:25:34.624Z,34.40
2022-08-14T16:27:08.619Z,28.60
2022-08-14T16:28:42.467Z,34.40
2022-08-14T16:30:24.581Z,25.00
2022-08-14T16:32:01.555Z,27.60
2022-08-14T16:33:59.564Z,27.60
2022-08-14T16:35:43.160Z,25.60
2022-08-14T16:37:21.329Z,25.60
2022-08-14T16:38:56.450Z,27.40
2022-08-14T16:40:32.673Z,34.60
2022-08-14T16:42:10.465Z,30.20
2022-08-14T16:44:13.678Z,32.60
2022-08-14T16:45:54.011Z,28.80
2022-08-14T16:47:32.162Z,30.20
2022-08-14T16:49:08.237Z,30.20
2022-08-14T16:50:44.245Z,27.40
2022-08-14T16:52:25.990Z,35.80
2022-08-14T16:54:34.472Z,28.40
2022-08-14T16:56:23.785Z,32.20
2022-08-14T16:57:58.488Z,26.40
2022-08-14T16:59:52.468Z,27.20
2022-08-14T17:01:27.436Z,27.00
2022-08-14T17:03:01.617Z,28.20
2022-08-14T17:04:41.290Z,29.60
2022-08-14T17:06:30.513Z,31.00
2022-08-14T17:08:07.360Z,29.40
2022-08-14T17:10:09.856Z,29.20
2022-08-14T17:11:56.196Z,28.00
2022-08-14T17:13:59.854Z,27.20
2022-08-14T17:15:24.477Z,31.80
2022-08-14T17:17:01.385Z,22.40
2022-08-14T17:18:41.290Z,22.20
2022-08-14T17:20:39.217Z,24.40
2022-08-14T17:22:12.191Z,26.60
2022-08-14T17:23:45.858Z,24.00
2022-08-14T17:25:22.665Z,31.80
2022-08-14T17:30:53.798Z,27.00
2022-08-14T17:32:44.089Z,35.20
2022-08-14T17:34:18.232Z,39.80
2022-08-14T17:37:44.825Z,35.40
2022-08-14T17:39:17.894Z,31.20
2022-08-14T17:41:09.696Z,38.80
2022-08-14T17:42:51.882Z,30.80
2022-08-14T17:44:45.185Z,30.60
2022-08-14T17:46:37.373Z,35.80
2022-08-14T17:49:10.805Z,32.60
2022-08-14T17:50:59.634Z,28.80
2022-08-14T17:52:41.336Z,25.20
2022-08-14T17:54:22.877Z,26.60
2022-08-14T17:56:06.977Z,20.60
2022-08-14T17:57:41.356Z,19.20
2022-08-14T17:59:17.573Z,21.00
2022-08-14T18:00:52.134Z,22.60
2022-08-14T18:02:31.070Z,22.80
2022-08-14T18:04:05.569Z,19.20
2022-08-14T18:06:08.391Z,24.00
2022-08-14T18:07:59.411Z,21.20
2022-08-14T18:09:57.121Z,21.60
2022-08-14T18:11:46.361Z,15.60
2022-08-14T18:13:18.957Z,27.80
2022-08-14T18:15:17.393Z,26.80
2022-08-14T18:16:51.357Z,24.80
2022-08-14T18:18:23.436Z,27.80
2022-08-14T18:19:55.737Z,26.00
2022-08-14T18:21:42.105Z,37.20
2022-08-14T18:23:21.687Z,27.80
2022-08-14T18:24:53.729Z,27.60
2022-08-14T18:26:36.897Z,34.80
2022-08-14T18:28:16.103Z,43.00
2022-08-14T18:29:54.882Z,51.00
2022-08-14T18:31:42.185Z,37.40
2022-08-14T18:33:20.849Z,47.20
2022-08-14T18:34:58.253Z,51.00
2022-08-14T18:36:48.445Z,51.00
2022-08-14T18:38:26.100Z,52.20
2022-08-14T18:40:17.774Z,48.40
2022-08-14T18:41:51.124Z,60.00
2022-08-14T18:43:43.605Z,65.80
2022-08-14T18:45:28.546Z,55.20
2022-08-14T18:47:10.028Z,68.20
2022-08-14T18:48:50.791Z,69.40
2022-08-14T18:50:30.484Z,70.60
2022-08-14T18:52:13.161Z,59.00
2022-08-14T18:53:59.302Z,62.80
2022-08-14T18:55:34.080Z,68.20
2022-08-14T18:57:05.945Z,64.80
2022-08-14T18:58:58.617Z,61.80
2022-08-14T19:00:39.894Z,62.20
2022-08-14T19:02:32.531Z,65.40
2022-08-14T19:04:04.729Z,61.80
2022-08-14T19:05:47.057Z,57.80
2022-08-14T19:07:19.033Z,53.40
2022-08-14T19:08:50.871Z,56.80
2022-08-14T19:10:31.889Z,53.00
2022-08-14T19:12:03.959Z,56.40
2022-08-14T19:13:48.285Z,55.20
2022-08-14T19:15:44.806Z,54.60
2022-08-14T19:18:14.179Z,58.80
2022-08-14T19:19:39.421Z,56.40
2022-08-14T19:21:28.102Z,60.20
2022-08-14T19:23:01.711Z,56.40
2022-08-14T19:24:44.099Z,56.60
2022-08-14T19:26:37.620Z,53.40
2022-08-14T19:28:31.852Z,53.40
2022-08-14T19:30:19.727Z,51.20
2022-08-14T19:31:59.024Z,51.80
2022-08-14T19:33:44.232Z,49.20
2022-08-14T19:35:19.309Z,50.40
2022-08-14T19:37:05.964Z,51.80
2022-08-14T19:38:57.467Z,52.60
2022-08-14T19:40:33.915Z,45.20
2022-08-14T19:42:10.285Z,51.60
2022-08-14T19:43:56.245Z,54.00
2022-08-14T19:45:30.225Z,46.40
2022-08-14T19:47:09.333Z,52.80
2022-08-14T19:48:43.971Z,56.40
2022-08-14T19:50:40.675Z,47.00
2022-08-14T19:52:21.106Z,48.40
2022-08-14T19:54:13.061Z,43.20
2022-08-14T19:56:01.999Z,50.00
2022-08-14T19:57:33.840Z,49.60
2022-08-14T19:59:06.320Z,50.20
2022-08-14T20:00:51.788Z,52.20
2022-08-14T20:02:30.156Z,49.20
2022-08-14T20:04:03.007Z,47.00
2022-08-14T20:05:42.806Z,48.20
2022-08-14T20:07:59.544Z,50.40
2022-08-14T20:11:06.964Z,53.20
2022-08-14T20:11:44.621Z,50.20
2022-08-14T20:13:25.119Z,53.80
2022-08-14T20:15:08.869Z,52.60
2022-08-14T20:16:42.723Z,53.60
2022-08-14T20:18:27.168Z,51.60
2022-08-14T20:20:20.909Z,53.80
2022-08-14T20:22:36.995Z,56.60
2022-08-14T20:24:30.621Z,50.20
2022-08-14T20:26:03.301Z,49.40
2022-08-14T20:27:38.243Z,52.80
2022-08-14T20:29:29.271Z,39.20
2022-08-14T20:31:15.784Z,53.00
2022-08-14T20:32:50.595Z,47.60
2022-08-14T20:34:36.176Z,48.60
2022-08-14T20:36:15.049Z,48.00
2022-08-14T20:38:29.743Z,53.20
2022-08-14T20:39:53.849Z,48.40
2022-08-14T20:41:28.416Z,52.40
2022-08-14T20:43:19.335Z,49.60
2022-08-14T20:45:24.215Z,46.00
2022-08-14T20:47:03.797Z,51.00
2022-08-14T20:48:52.838Z,51.60
2022-08-14T20:50:28.725Z,49.00
2022-08-14T20:52:19.032Z,47.60
2022-08-14T20:53:58.756Z,47.80
2022-08-14T20:55:35.240Z,53.20
2022-08-14T20:57:08.824Z,52.80
2022-08-14T20:58:44.270Z,43.20
2022-08-14T21:00:36.819Z,47.40
2022-08-14T21:02:38.672Z,49.00
2022-08-14T21:04:24.448Z,45.20
2022-08-14T21:06:01.415Z,48.40
2022-08-14T21:07:51.332Z,50.60
2022-08-14T21:10:04.553Z,48.40
2022-08-14T21:11:20.203Z,47.60
2022-08-14T21:13:11.924Z,37.80
2022-08-14T21:14:51.753Z,46.40
2022-08-14T21:16:25.957Z,43.20
2022-08-14T21:18:07.734Z,49.00
2022-08-14T21:19:40.400Z,51.80
2022-08-14T21:21:19.399Z,37.80
2022-08-14T21:22:51.109Z,44.20
2022-08-14T21:24:39.486Z,47.60
2022-08-14T21:26:16.495Z,47.60
2022-08-14T21:28:10.042Z,46.00
2022-08-14T21:30:01.796Z,44.20
2022-08-14T21:31:33.571Z,41.00
2022-08-14T21:33:05.417Z,42.60
2022-08-14T21:34:54.941Z,38.40
2022-08-14T21:36:31.026Z,37.20
2022-08-14T21:38:03.310Z,46.00
2022-08-14T21:39:35.150Z,46.80
2022-08-14T21:41:43.171Z,41.00
2022-08-14T21:43:26.640Z,36.00
2022-08-14T21:45:01.926Z,35.60
2022-08-14T21:47:04.595Z,44.00
2022-08-14T21:48:37.119Z,40.20
2022-08-14T21:50:59.882Z,36.60
2022-08-14T21:52:49.187Z,36.60
2022-08-14T21:54:06.582Z,35.20
2022-08-14T21:55:58.560Z,41.80
2022-08-14T21:57:55.905Z,34.20
2022-08-14T21:59:29.113Z,28.20
2022-08-14T22:01:01.146Z,43.20
2022-08-14T22:02:33.798Z,43.80
2022-08-14T22:04:32.728Z,45.20
2022-08-14T22:05:57.772Z,48.80
2022-08-14T22:07:29.746Z,48.20
2022-08-14T22:09:01.579Z,47.20
2022-08-14T22:10:35.008Z,49.20
2022-08-14T22:12:08.318Z,47.20
2022-08-14T22:13:46.468Z,49.60
2022-08-14T22:15:18.865Z,41.00
2022-08-14T22:17:00.657Z,51.00
2022-08-14T22:18:42.789Z,49.40
2022-08-14T22:20:18.464Z,49.40
2022-08-14T22:21:50.925Z,48.80
2022-08-14T22:23:23.934Z,49.40
2022-08-14T22:25:00.086Z,47.60
2022-08-14T22:26:32.723Z,45.20
2022-08-14T22:28:09.918Z,45.60
2022-08-14T22:29:42.397Z,50.20
2022-08-14T22:31:18.180Z,48.40
2022-08-14T22:32:57.620Z,47.80
2022-08-14T22:34:30.131Z,53.60
